createdAt,value
2019-03-20T00:01:43.656Z,2.10
2019-03-20T00:04:22.226Z,2.60
2019-03-20T00:07:04.139Z,2.00
2019-03-20T00:09:45.795Z,2.57
2019-03-20T00:12:27.411Z,1.77
2019-03-20T00:15:08.867Z,2.37
2019-03-20T00:17:50.523Z,2.60
2019-03-20T00:20:31.478Z,2.50
2019-03-20T00:23:12.271Z,2.03
2019-03-20T00:25:53.168Z,2.03
2019-03-20T00:28:34.089Z,2.43
2019-03-20T00:34:33.792Z,3.00
2019-03-20T00:43:21.112Z,2.40
2019-03-20T00:52:18.976Z,2.33
2019-03-20T00:54:48.764Z,1.70
2019-03-20T00:57:18.951Z,2.50
2019-03-20T01:12:39.324Z,2.10
2019-03-20T01:21:36.782Z,2.50
2019-03-20T01:33:37.725Z,2.47
2019-03-20T01:36:46.777Z,2.13
2019-03-20T01:51:55.613Z,2.07
2019-03-20T02:06:51.173Z,3.13
2019-03-20T02:09:40.007Z,1.97
2019-03-20T02:12:28.745Z,3.47
2019-03-20T02:15:17.459Z,2.03
2019-03-20T02:27:06.633Z,2.13
2019-03-20T02:29:48.879Z,1.70
2019-03-20T02:32:30.192Z,1.20
2019-03-20T02:35:10.980Z,1.30
2019-03-20T02:37:52.404Z,1.37
2019-03-20T02:40:33.940Z,1.37
2019-03-20T02:43:15.032Z,1.50
2019-03-20T02:45:56.744Z,1.13
2019-03-20T02:48:38.211Z,1.20
2019-03-20T02:51:18.376Z,1.20
2019-03-20T03:00:14.680Z,1.40
2019-03-20T03:03:03.554Z,1.87
2019-03-20T03:05:33.736Z,1.70
2019-03-20T03:08:03.496Z,1.47
2019-03-20T03:10:33.386Z,1.73
2019-03-20T03:13:22.350Z,1.37
2019-03-20T03:16:11.154Z,1.30
2019-03-20T03:19:00.089Z,1.63
2019-03-20T03:24:48.169Z,1.30
2019-03-20T03:27:36.909Z,2.03
2019-03-20T03:30:25.729Z,1.43
2019-03-20T03:32:55.604Z,1.20
2019-03-20T03:35:25.358Z,1.50
2019-03-20T03:37:55.335Z,1.60
2019-03-20T03:40:25.067Z,1.50
2019-03-20T03:42:54.750Z,1.20
2019-03-20T03:45:46.573Z,1.33
2019-03-20T03:48:35.607Z,1.47
2019-03-20T03:51:24.412Z,1.23
2019-03-20T03:54:05.809Z,1.37
2019-03-20T03:56:45.907Z,1.30
2019-03-20T03:59:34.947Z,1.43
2019-03-20T04:02:35.459Z,0.97
2019-03-20T04:05:14.427Z,1.30
2019-03-20T04:08:03.194Z,1.73
2019-03-20T04:10:51.921Z,1.60
2019-03-20T04:13:40.706Z,1.20
2019-03-20T04:19:38.721Z,1.20
2019-03-20T04:22:39.142Z,1.30
2019-03-20T04:25:17.842Z,1.37
2019-03-20T04:28:06.563Z,1.27
2019-03-20T04:30:55.417Z,1.50
2019-03-20T04:33:25.117Z,1.60
2019-03-20T04:35:55.308Z,1.50
2019-03-20T04:38:25.125Z,1.33
2019-03-20T04:40:54.850Z,1.03
2019-03-20T04:43:24.843Z,1.27
2019-03-20T04:45:54.667Z,1.30
2019-03-20T04:48:24.479Z,1.67
2019-03-20T04:53:26.250Z,1.10
2019-03-20T04:56:07.861Z,1.37
2019-03-20T04:58:49.581Z,1.07
2019-03-20T05:01:31.022Z,1.50
2019-03-20T05:04:12.684Z,1.50
2019-03-20T05:06:58.897Z,1.53
2019-03-20T05:09:36.975Z,1.50
2019-03-20T05:12:18.598Z,1.20
2019-03-20T05:15:00.358Z,1.33
2019-03-20T05:17:41.947Z,1.10
2019-03-20T05:20:23.556Z,1.10
2019-03-20T05:23:05.333Z,1.47
2019-03-20T05:25:46.834Z,1.40
2019-03-20T05:28:28.181Z,1.20
2019-03-20T05:31:09.671Z,1.60
2019-03-20T05:33:51.219Z,1.33
2019-03-20T05:36:32.634Z,1.37
2019-03-20T05:39:15.771Z,1.17
2019-03-20T05:41:56.310Z,1.23
2019-03-20T05:44:37.638Z,1.20
2019-03-20T05:47:19.096Z,1.93
2019-03-20T05:49:59.852Z,1.50
2019-03-20T06:01:56.446Z,1.30
2019-03-20T06:07:44.365Z,1.20
2019-03-20T06:10:33.157Z,1.40
2019-03-20T06:19:30.358Z,1.70
2019-03-20T06:31:27.053Z,1.20
2019-03-20T06:33:56.802Z,1.17
2019-03-20T06:36:28.385Z,1.30
2019-03-20T06:38:58.309Z,1.40
2019-03-20T06:41:28.068Z,1.40
2019-03-20T06:43:58.134Z,1.63
2019-03-20T06:46:27.909Z,1.70
2019-03-20T06:48:57.644Z,1.40
2019-03-20T06:51:27.646Z,1.30
2019-03-20T06:53:57.464Z,1.30
2019-03-20T07:06:59.207Z,1.20
2019-03-20T07:10:06.911Z,1.57
2019-03-20T07:12:56.492Z,1.83
2019-03-20T07:15:26.461Z,1.53
2019-03-20T07:17:59.356Z,1.30
2019-03-20T07:20:29.442Z,1.30
2019-03-20T07:22:59.129Z,1.60
2019-03-20T07:25:47.854Z,1.97
2019-03-20T07:28:37.123Z,1.50
2019-03-20T07:31:25.918Z,1.70
2019-03-20T07:34:28.568Z,1.70
2019-03-20T07:36:57.745Z,2.03
2019-03-20T07:39:40.262Z,2.10
2019-03-20T07:42:21.956Z,1.70
2019-03-20T07:45:02.737Z,1.77
2019-03-20T07:47:44.422Z,2.30
2019-03-20T07:50:24.022Z,1.60
2019-03-20T08:17:36.549Z,1.77
2019-03-20T08:20:25.310Z,1.60
2019-03-20T08:26:34.711Z,1.73
2019-03-20T08:29:13.678Z,1.90
2019-03-20T08:32:02.508Z,1.83
2019-03-20T08:40:59.841Z,1.90
2019-03-20T08:46:47.825Z,1.90
2019-03-20T08:49:38.286Z,1.93
2019-03-20T08:52:19.524Z,1.90
2019-03-20T08:55:00.438Z,1.67
2019-03-20T08:57:41.307Z,1.73
2019-03-20T09:00:22.563Z,2.33
2019-03-20T09:03:04.064Z,2.87
2019-03-20T09:06:13.183Z,1.70
2019-03-20T09:09:01.959Z,2.63
2019-03-20T09:11:51.013Z,2.67
2019-03-20T09:14:21.079Z,2.70
2019-03-20T09:16:50.886Z,2.80
2019-03-20T09:19:20.775Z,3.10
2019-03-20T09:21:52.241Z,2.80
2019-03-20T09:24:22.347Z,3.80
2019-03-20T09:26:52.435Z,2.83
2019-03-20T09:29:23.766Z,3.20
2019-03-20T09:31:53.720Z,3.63
2019-03-20T09:34:23.563Z,3.73
2019-03-20T09:36:55.284Z,3.47
2019-03-20T09:39:25.125Z,3.00
2019-03-20T09:41:55.246Z,3.10
2019-03-20T09:44:25.595Z,3.77
2019-03-20T09:46:56.156Z,3.10
2019-03-20T09:49:25.951Z,3.50
2019-03-20T09:51:56.094Z,2.87
2019-03-20T09:54:25.845Z,2.67
2019-03-20T09:56:55.799Z,2.23
2019-03-20T09:59:26.111Z,2.27
2019-03-20T10:01:56.122Z,2.63
2019-03-20T10:04:26.095Z,2.63
2019-03-20T10:06:56.262Z,2.30
2019-03-20T10:09:26.081Z,1.67
2019-03-20T10:11:57.532Z,1.97
2019-03-20T10:14:28.004Z,1.63
2019-03-20T10:16:57.818Z,1.43
2019-03-20T10:19:28.179Z,1.43
2019-03-20T10:21:58.073Z,1.33
2019-03-20T10:24:27.853Z,1.60
2019-03-20T10:27:01.128Z,1.13
2019-03-20T10:29:30.847Z,1.10
2019-03-20T10:32:00.635Z,0.90
2019-03-20T10:34:39.223Z,1.07
2019-03-20T10:37:02.277Z,0.90
2019-03-20T10:39:44.507Z,0.80
2019-03-20T10:42:25.649Z,1.00
2019-03-20T10:45:07.069Z,0.77
2019-03-20T10:47:48.235Z,0.80
2019-03-20T10:50:28.381Z,0.80
2019-03-20T10:53:17.902Z,0.93
2019-03-20T10:56:06.889Z,0.77
2019-03-20T11:17:53.427Z,1.20
2019-03-20T11:26:50.974Z,1.50
2019-03-20T11:29:40.364Z,1.10
2019-03-20T11:35:28.566Z,0.80
2019-03-20T11:37:58.892Z,1.00
2019-03-20T11:40:47.710Z,1.97
2019-03-20T11:43:48.023Z,1.10
2019-03-20T11:49:50.206Z,0.97
2019-03-20T11:52:18.983Z,1.50
2019-03-20T11:55:00.434Z,1.23
2019-03-20T11:57:41.686Z,1.30
2019-03-20T12:00:22.581Z,1.20
2019-03-20T12:03:04.209Z,0.90
2019-03-20T12:05:44.357Z,1.37
2019-03-20T12:11:46.181Z,1.10
2019-03-20T12:14:14.278Z,1.10
2019-03-20T12:16:44.062Z,0.80
2019-03-20T12:19:15.735Z,0.90
2019-03-20T12:21:45.675Z,1.00
2019-03-20T12:24:15.461Z,1.40
2019-03-20T12:26:45.316Z,1.20
2019-03-20T12:29:15.273Z,1.00
2019-03-20T12:31:46.691Z,1.20
2019-03-20T12:34:16.699Z,1.07
2019-03-20T12:36:46.731Z,1.20
2019-03-20T12:39:16.950Z,1.00
2019-03-20T12:41:46.866Z,1.30
2019-03-20T12:44:16.675Z,1.27
2019-03-20T12:46:46.784Z,1.40
2019-03-20T12:49:16.648Z,1.30
2019-03-20T12:51:46.469Z,1.53
2019-03-20T12:54:18.577Z,1.70
2019-03-20T12:56:48.494Z,1.50
2019-03-20T12:59:18.339Z,1.63
2019-03-20T13:01:48.655Z,1.40
2019-03-20T13:04:20.909Z,1.27
2019-03-20T13:06:50.633Z,1.50
2019-03-20T13:09:21.275Z,1.90
2019-03-20T13:11:51.187Z,1.90
2019-03-20T13:14:21.065Z,1.90
2019-03-20T13:16:51.324Z,1.73
2019-03-20T13:19:21.124Z,1.70
2019-03-20T13:21:51.005Z,1.70
2019-03-20T13:24:23.278Z,2.70
2019-03-20T13:26:53.127Z,1.90
2019-03-20T13:29:22.949Z,2.10
2019-03-20T13:31:54.072Z,2.77
2019-03-20T13:34:24.075Z,2.40
2019-03-20T13:36:56.295Z,2.40
2019-03-20T13:39:26.502Z,2.43
2019-03-20T13:41:56.340Z,2.53
2019-03-20T13:44:26.131Z,2.57
2019-03-20T13:46:58.233Z,2.10
2019-03-20T13:49:28.122Z,2.00
2019-03-20T13:51:58.025Z,1.87
2019-03-20T13:54:28.804Z,1.93
2019-03-20T13:56:58.725Z,2.30
2019-03-20T14:02:03.969Z,3.50
2019-03-20T14:04:45.216Z,2.33
2019-03-20T14:07:27.011Z,2.83
2019-03-20T14:10:08.262Z,2.20
2019-03-20T14:12:50.082Z,2.07
2019-03-20T14:15:32.143Z,1.97
2019-03-20T14:18:14.086Z,3.20
2019-03-20T14:20:56.062Z,2.77
2019-03-20T14:23:36.120Z,2.97
2019-03-20T14:29:48.088Z,2.70
2019-03-20T14:32:24.721Z,3.17
2019-03-20T14:35:13.728Z,4.27
2019-03-20T14:38:02.540Z,3.00
2019-03-20T14:46:23.495Z,3.07
2019-03-20T14:48:53.357Z,2.97
2019-03-20T14:51:23.203Z,3.27
2019-03-20T14:53:54.748Z,2.80
2019-03-20T14:56:24.906Z,3.17
2019-03-20T14:58:54.772Z,2.90
2019-03-20T15:01:25.167Z,3.10
2019-03-20T15:03:55.190Z,3.03
2019-03-20T15:06:30.042Z,2.70
2019-03-20T15:09:01.297Z,2.57
2019-03-20T15:11:31.260Z,2.00
2019-03-20T15:14:01.083Z,3.93
2019-03-20T15:16:31.577Z,2.80
2019-03-20T15:19:01.479Z,2.90
2019-03-20T15:21:31.289Z,2.60
2019-03-20T15:24:02.725Z,2.87
2019-03-20T15:26:32.581Z,2.60
2019-03-20T15:29:02.509Z,2.67
2019-03-20T15:44:50.179Z,2.70
2019-03-20T15:47:31.691Z,2.90
2019-03-20T15:50:13.226Z,2.50
2019-03-20T15:52:53.365Z,2.93
2019-03-20T15:55:42.334Z,2.20
2019-03-20T15:58:31.106Z,3.97
2019-03-20T16:01:19.913Z,4.20
2019-03-20T16:07:17.374Z,2.10
2019-03-20T16:12:56.613Z,2.13
2019-03-20T16:15:45.395Z,2.20
2019-03-20T16:18:15.770Z,2.30
2019-03-20T16:21:04.510Z,1.83
2019-03-20T16:23:53.371Z,1.87
2019-03-20T16:26:23.115Z,2.17
2019-03-20T16:28:53.232Z,1.97
2019-03-20T16:31:23.016Z,1.70
2019-03-20T16:33:52.767Z,1.90
2019-03-20T16:36:41.544Z,1.30
2019-03-20T16:39:11.386Z,1.60
2019-03-20T16:41:41.354Z,1.57
2019-03-20T16:44:32.304Z,1.90
2019-03-20T16:47:21.089Z,1.23
2019-03-20T16:50:10.836Z,1.50
2019-03-20T16:52:40.785Z,1.20
2019-03-20T16:55:50.853Z,1.43
2019-03-20T16:58:20.964Z,1.30
2019-03-20T17:00:51.125Z,1.20
2019-03-20T17:03:20.967Z,1.07
2019-03-20T17:09:00.052Z,1.17
2019-03-20T17:11:38.104Z,1.30
2019-03-20T17:14:44.134Z,1.87
2019-03-20T17:17:44.542Z,2.90
2019-03-20T17:20:23.405Z,1.40
2019-03-20T17:22:53.316Z,1.03
2019-03-20T17:25:23.641Z,1.17
2019-03-20T17:27:53.618Z,1.30
2019-03-20T17:30:28.038Z,1.20
2019-03-20T17:33:17.102Z,1.40
2019-03-20T17:35:46.863Z,1.50
2019-03-20T17:38:16.750Z,1.30
2019-03-20T17:40:46.894Z,1.20
2019-03-20T17:43:35.769Z,1.80
2019-03-20T17:46:06.621Z,1.60
2019-03-20T17:48:36.653Z,1.97
2019-03-20T17:51:06.582Z,1.40
2019-03-20T17:53:55.416Z,1.60
2019-03-20T17:56:25.558Z,1.23
2019-03-20T17:59:14.561Z,1.83
2019-03-20T18:01:44.353Z,1.73
2019-03-20T18:04:14.527Z,1.30
2019-03-20T18:06:44.350Z,2.00
2019-03-20T18:09:14.257Z,1.70
2019-03-20T18:12:03.430Z,2.03
2019-03-20T18:14:33.631Z,1.73
2019-03-20T18:17:03.712Z,1.83
2019-03-20T18:19:33.691Z,2.00
2019-03-20T18:22:03.730Z,1.80
2019-03-20T18:24:33.949Z,1.97
2019-03-20T18:27:03.827Z,2.00
2019-03-20T18:29:33.649Z,2.33
2019-03-20T18:32:22.485Z,1.90
2019-03-20T18:34:52.267Z,1.80
2019-03-20T18:37:22.082Z,1.57
2019-03-20T18:39:53.238Z,1.70
2019-03-20T18:42:23.067Z,1.70
2019-03-20T18:45:12.345Z,1.83
2019-03-20T18:48:01.038Z,1.80
2019-03-20T18:50:31.176Z,1.37
2019-03-20T18:53:22.313Z,1.63
2019-03-20T18:55:52.439Z,1.90
2019-03-20T18:58:22.261Z,2.13
2019-03-20T19:00:52.183Z,2.13
2019-03-20T19:03:42.142Z,1.90
2019-03-20T19:06:15.459Z,1.90
2019-03-20T19:08:45.750Z,1.93
2019-03-20T19:11:18.102Z,2.30
2019-03-20T19:13:48.086Z,2.00
2019-03-20T19:16:18.155Z,2.83
2019-03-20T19:18:48.001Z,3.00
2019-03-20T19:21:18.220Z,3.23
2019-03-20T19:23:48.227Z,2.80
2019-03-20T19:26:18.478Z,2.40
2019-03-20T19:28:49.412Z,2.30
2019-03-20T19:31:20.687Z,2.80
2019-03-20T19:33:50.546Z,2.63
2019-03-20T19:36:20.648Z,2.17
2019-03-20T19:38:51.912Z,1.93
2019-03-20T19:41:21.935Z,2.40
2019-03-20T19:43:51.743Z,1.90
2019-03-20T19:46:21.979Z,2.47
2019-03-20T19:48:51.913Z,3.43
2019-03-20T19:51:22.375Z,2.60
2019-03-20T19:53:53.424Z,2.40
2019-03-20T19:56:23.289Z,2.60
2019-03-20T19:58:53.196Z,2.63
2019-03-20T20:01:24.487Z,2.53
2019-03-20T20:03:54.312Z,2.30
2019-03-20T20:06:24.181Z,2.77
2019-03-20T20:08:55.471Z,1.97
2019-03-20T20:11:25.655Z,2.70
2019-03-20T20:13:55.583Z,3.00
2019-03-20T20:16:25.784Z,3.70
2019-03-20T20:18:55.750Z,3.13
2019-03-20T20:21:25.549Z,3.67
2019-03-20T20:23:55.770Z,3.53
2019-03-20T20:26:25.757Z,4.07
2019-03-20T20:28:55.726Z,3.70
2019-03-20T20:31:25.866Z,3.03
2019-03-20T20:33:55.848Z,2.97
2019-03-20T20:36:25.715Z,3.20
2019-03-20T20:38:55.935Z,3.23
2019-03-20T20:41:25.816Z,3.43
2019-03-20T20:43:55.861Z,2.63
2019-03-20T20:46:27.205Z,2.90
2019-03-20T20:48:57.199Z,2.40
2019-03-20T20:51:27.155Z,3.23
2019-03-20T20:53:58.264Z,2.80
2019-03-20T20:56:28.192Z,2.87
2019-03-20T20:58:58.045Z,2.33
2019-03-20T21:01:30.343Z,2.20
2019-03-20T21:04:00.302Z,2.07
2019-03-20T21:06:30.074Z,2.43
2019-03-20T21:09:01.407Z,1.80
2019-03-20T21:11:31.398Z,1.83
2019-03-20T21:14:01.244Z,1.80
2019-03-20T21:16:32.187Z,2.63
2019-03-20T21:19:32.509Z,2.57
2019-03-20T21:22:53.323Z,2.10
2019-03-20T21:25:24.357Z,2.50
2019-03-20T21:28:50.970Z,2.00
2019-03-20T21:31:49.052Z,2.17
2019-03-20T21:35:02.343Z,2.37
2019-03-20T21:38:12.813Z,2.60
2019-03-20T21:41:06.934Z,2.53
2019-03-20T21:44:10.763Z,2.70
2019-03-20T21:47:18.701Z,3.30
2019-03-20T21:49:49.146Z,2.53
2019-03-20T21:52:20.038Z,2.67
2019-03-20T21:55:31.026Z,3.17
2019-03-20T21:58:11.961Z,2.70
2019-03-20T22:00:53.279Z,3.53
2019-03-20T22:06:52.392Z,2.93
2019-03-20T22:10:00.343Z,3.30
2019-03-20T22:13:18.083Z,2.97
2019-03-20T22:19:26.667Z,3.17
2019-03-20T22:22:34.372Z,3.23
2019-03-20T22:25:42.127Z,3.37
2019-03-20T22:28:52.319Z,3.37
2019-03-20T22:31:23.021Z,3.03
2019-03-20T22:34:30.688Z,3.00
2019-03-20T22:37:39.957Z,3.03
2019-03-20T22:40:47.690Z,3.13
2019-03-20T22:43:39.835Z,3.10
2019-03-20T22:46:47.561Z,3.43
2019-03-20T22:49:55.320Z,3.33
2019-03-20T22:52:49.178Z,3.27
2019-03-20T22:55:57.001Z,3.53
2019-03-20T22:59:04.670Z,3.13
2019-03-20T23:02:04.421Z,3.70
2019-03-20T23:04:55.144Z,2.97
2019-03-20T23:10:25.178Z,3.67
2019-03-20T23:12:55.537Z,4.23
2019-03-20T23:15:44.501Z,4.23
2019-03-20T23:27:52.470Z,3.07
2019-03-20T23:30:55.445Z,4.60
2019-03-20T23:33:32.195Z,3.13
2019-03-20T23:36:21.226Z,4.43
2019-03-20T23:39:10.288Z,5.27
2019-03-20T23:41:59.321Z,4.93
2019-03-20T23:45:00.372Z,5.00
2019-03-20T23:47:41.705Z,4.33
2019-03-20T23:50:30.753Z,4.83
2019-03-20T23:53:39.990Z,5.30
2019-03-20T23:59:29.720Z,5.10
